sensor_id;sensor_type;location;lat;lon;timestamp;pressure;altitude;pressure_sealevel;temperature;humidity
61526;BME280;47394;41.366;-8.738;2022-09-20T00:00:48;76041.66;;;-144.74;94.33
61526;BME280;47394;41.366;-8.738;2022-09-20T00:02:48;76045.69;;;-144.74;94.67
61526;BME280;47394;41.366;-8.738;2022-09-20T00:04:49;76045.69;;;-144.74;94.78
61526;BME280;47394;41.366;-8.738;2022-09-20T00:06:50;76047.69;;;-144.74;94.85
61526;BME280;47394;41.366;-8.738;2022-09-20T00:08:51;76045.69;;;-144.74;94.99
61526;BME280;47394;41.366;-8.738;2022-09-20T00:10:57;76053.72;;;-144.74;95.40
61526;BME280;47394;41.366;-8.738;2022-09-20T00:13:01;76051.69;;;-144.74;95.39
61526;BME280;47394;41.366;-8.738;2022-09-20T00:15:04;76049.69;;;-144.74;95.39
61526;BME280;47394;41.366;-8.738;2022-09-20T00:17:05;76049.69;;;-144.74;95.72
61526;BME280;47394;41.366;-8.738;2022-09-20T00:19:06;76051.69;;;-144.74;95.88
61526;BME280;47394;41.366;-8.738;2022-09-20T00:21:14;76049.69;;;-144.74;95.99
61526;BME280;47394;41.366;-8.738;2022-09-20T00:23:16;76055.72;;;-144.74;96.52
61526;BME280;47394;41.366;-8.738;2022-09-20T00:25:19;76059.72;;;-144.74;96.74
61526;BME280;47394;41.366;-8.738;2022-09-20T00:27:20;76055.72;;;-144.74;96.85
61526;BME280;47394;41.366;-8.738;2022-09-20T00:29:20;76055.72;;;-144.74;97.23
61526;BME280;47394;41.366;-8.738;2022-09-20T00:31:21;76055.72;;;-144.74;97.11
61526;BME280;47394;41.366;-8.738;2022-09-20T00:33:23;76055.72;;;-144.74;97.07
61526;BME280;47394;41.366;-8.738;2022-09-20T00:35:45;76057.72;;;-144.74;97.10
61526;BME280;47394;41.366;-8.738;2022-09-20T00:37:45;76051.69;;;-144.74;97.15
61526;BME280;47394;41.366;-8.738;2022-09-20T00:39:46;76059.72;;;-144.74;97.10
61526;BME280;47394;41.366;-8.738;2022-09-20T00:41:46;76057.72;;;-144.74;97.16
61526;BME280;47394;41.366;-8.738;2022-09-20T00:43:47;76059.72;;;-144.74;97.22
61526;BME280;47394;41.366;-8.738;2022-09-20T00:45:48;76061.75;;;-144.74;97.05
61526;BME280;47394;41.366;-8.738;2022-09-20T00:48:13;76063.75;;;-144.74;97.18
61526;BME280;47394;41.366;-8.738;2022-09-20T00:50:43;76067.75;;;-144.74;97.17
61526;BME280;47394;41.366;-8.738;2022-09-20T00:52:47;76069.78;;;-144.74;97.36
61526;BME280;47394;41.366;-8.738;2022-09-20T00:54:51;76075.81;;;-144.74;97.86
61526;BME280;47394;41.366;-8.738;2022-09-20T00:56:52;76073.78;;;-144.74;98.22
61526;BME280;47394;41.366;-8.738;2022-09-20T00:59:32;76075.81;;;-144.74;98.32
61526;BME280;47394;41.366;-8.738;2022-09-20T01:01:34;76081.81;;;-144.74;98.53
61526;BME280;47394;41.366;-8.738;2022-09-20T01:03:37;76081.81;;;-144.74;99.08
61526;BME280;47394;41.366;-8.738;2022-09-20T01:05:39;76095.88;;;-144.74;99.34
61526;BME280;47394;41.366;-8.738;2022-09-20T01:07:41;76093.88;;;-144.74;99.32
61526;BME280;47394;41.366;-8.738;2022-09-20T01:09:43;76091.88;;;-144.74;99.43
61526;BME280;47394;41.366;-8.738;2022-09-20T01:11:45;76091.88;;;-144.74;99.58
61526;BME280;47394;41.366;-8.738;2022-09-20T01:13:46;76091.88;;;-144.74;99.60
61526;BME280;47394;41.366;-8.738;2022-09-20T01:15:47;76089.84;;;-144.74;100.00
61526;BME280;47394;41.366;-8.738;2022-09-20T01:17:51;76093.88;;;-144.74;100.00
61526;BME280;47394;41.366;-8.738;2022-09-20T01:20:13;76103.91;;;-144.74;100.00
61526;BME280;47394;41.366;-8.738;2022-09-20T01:22:30;76103.91;;;-144.74;100.00
61526;BME280;47394;41.366;-8.738;2022-09-20T01:32:02;76113.97;;;-144.74;100.00
61526;BME280;47394;41.366;-8.738;2022-09-20T01:34:10;76111.94;;;-144.74;100.00
61526;BME280;47394;41.366;-8.738;2022-09-20T01:36:17;76111.94;;;-144.74;100.00
61526;BME280;47394;41.366;-8.738;2022-09-20T01:41:23;76109.94;;;-144.74;100.00
61526;BME280;47394;41.366;-8.738;2022-09-20T01:43:41;76107.94;;;-144.74;100.00
61526;BME280;47394;41.366;-8.738;2022-09-20T01:45:47;76101.91;;;-144.74;100.00
61526;BME280;47394;41.366;-8.738;2022-09-20T01:48:13;76101.91;;;-144.74;100.00
61526;BME280;47394;41.366;-8.738;2022-09-20T01:59:48;76091.88;;;-144.74;100.00
61526;BME280;47394;41.366;-8.738;2022-09-20T02:07:06;76087.84;;;-144.74;100.00
61526;BME280;47394;41.366;-8.738;2022-09-20T02:29:07;76059.72;;;-144.74;100.00
61526;BME280;47394;41.366;-8.738;2022-09-20T02:33:56;76065.75;;;-144.74;100.00
61526;BME280;47394;41.366;-8.738;2022-09-20T02:36:40;76065.75;;;-144.74;99.99
61526;BME280;47394;41.366;-8.738;2022-09-20T02:38:58;76063.75;;;-144.74;100.00
61526;BME280;47394;41.366;-8.738;2022-09-20T02:43:32;76061.75;;;-144.74;99.66
61526;BME280;47394;41.366;-8.738;2022-09-20T02:45:41;76061.75;;;-144.74;99.72
61526;BME280;47394;41.366;-8.738;2022-09-20T02:47:43;76061.75;;;-144.74;99.66
61526;BME280;47394;41.366;-8.738;2022-09-20T02:54:41;76053.72;;;-144.74;99.52
61526;BME280;47394;41.366;-8.738;2022-09-20T02:58:53;76055.72;;;-144.74;99.07
61526;BME280;47394;41.366;-8.738;2022-09-20T03:10:37;76065.75;;;-144.74;98.05
61526;BME280;47394;41.366;-8.738;2022-09-20T03:15:10;76067.75;;;-144.74;97.85
61526;BME280;47394;41.366;-8.738;2022-09-20T03:17:28;76063.75;;;-144.74;97.90
61526;BME280;47394;41.366;-8.738;2022-09-20T03:19:42;76057.72;;;-144.74;98.31
61526;BME280;47394;41.366;-8.738;2022-09-20T03:22:00;76065.75;;;-144.74;98.62
61526;BME280;47394;41.366;-8.738;2022-09-20T03:26:55;76067.75;;;-144.74;99.01
61526;BME280;47394;41.366;-8.738;2022-09-20T03:29:31;76063.75;;;-144.74;99.04
61526;BME280;47394;41.366;-8.738;2022-09-20T03:40:34;76079.81;;;-144.74;99.65
61526;BME280;47394;41.366;-8.738;2022-09-20T03:42:46;76081.81;;;-144.74;99.59
61526;BME280;47394;41.366;-8.738;2022-09-20T03:47:36;76083.84;;;-144.74;99.60
61526;BME280;47394;41.366;-8.738;2022-09-20T03:50:06;76087.84;;;-144.74;99.44
61526;BME280;47394;41.366;-8.738;2022-09-20T03:59:29;76083.84;;;-144.74;99.41
61526;BME280;47394;41.366;-8.738;2022-09-20T04:04:59;76079.81;;;-144.74;99.22
61526;BME280;47394;41.366;-8.738;2022-09-20T04:16:28;76083.84;;;-144.74;99.02
61526;BME280;47394;41.366;-8.738;2022-09-20T04:21:04;76089.84;;;-144.74;98.93
61526;BME280;47394;41.366;-8.738;2022-09-20T04:23:23;76093.88;;;-144.74;99.33
61526;BME280;47394;41.366;-8.738;2022-09-20T04:25:35;76091.88;;;-144.74;99.49
61526;BME280;47394;41.366;-8.738;2022-09-20T04:27:46;76089.84;;;-144.74;99.48
61526;BME280;47394;41.366;-8.738;2022-09-20T04:34:05;76087.84;;;-144.74;99.95
61526;BME280;47394;41.366;-8.738;2022-09-20T04:38:29;76091.88;;;-144.74;100.00
61526;BME280;47394;41.366;-8.738;2022-09-20T04:43:06;76097.91;;;-144.74;100.00
61526;BME280;47394;41.366;-8.738;2022-09-20T04:45:29;76099.91;;;-144.74;100.00
61526;BME280;47394;41.366;-8.738;2022-09-20T05:04:52;76099.91;;;-144.74;100.00
61526;BME280;47394;41.366;-8.738;2022-09-20T05:11:48;76101.91;;;-144.74;100.00
61526;BME280;47394;41.366;-8.738;2022-09-20T05:16:20;76101.91;;;-144.74;100.00
61526;BME280;47394;41.366;-8.738;2022-09-20T05:28:47;76105.94;;;-144.74;100.00
61526;BME280;47394;41.366;-8.738;2022-09-20T05:32:50;76111.94;;;-144.74;100.00
61526;BME280;47394;41.366;-8.738;2022-09-20T05:35:13;76111.94;;;-144.74;100.00
61526;BME280;47394;41.366;-8.738;2022-09-20T05:39:39;76111.94;;;-144.74;100.00
61526;BME280;47394;41.366;-8.738;2022-09-20T05:42:04;76109.94;;;-144.74;100.00
61526;BME280;47394;41.366;-8.738;2022-09-20T05:57:05;76128.03;;;-144.74;100.00
61526;BME280;47394;41.366;-8.738;2022-09-20T05:59:52;76126.00;;;-144.74;100.00
61526;BME280;47394;41.366;-8.738;2022-09-20T06:01:54;76128.03;;;-144.74;100.00
61526;BME280;47394;41.366;-8.738;2022-09-20T06:13:28;76142.09;;;-144.74;100.00
61526;BME280;47394;41.366;-8.738;2022-09-20T06:17:51;76150.13;;;-144.74;100.00
61526;BME280;47394;41.366;-8.738;2022-09-20T06:20:17;76148.09;;;-144.74;100.00
61526;BME280;47394;41.366;-8.738;2022-09-20T06:22:30;76152.13;;;-144.74;100.00
61526;BME280;47394;41.366;-8.738;2022-09-20T06:24:42;76148.09;;;-144.74;100.00
61526;BME280;47394;41.366;-8.738;2022-09-20T06:26:45;76156.13;;;-144.74;100.00
61526;BME280;47394;41.366;-8.738;2022-09-20T06:28:54;76150.13;;;-144.74;100.00
61526;BME280;47394;41.366;-8.738;2022-09-20T06:30:55;76152.13;;;-144.74;100.00
61526;BME280;47394;41.366;-8.738;2022-09-20T06:33:00;76146.09;;;-144.74;100.00
61526;BME280;47394;41.366;-8.738;2022-09-20T06:35:09;76140.06;;;-144.74;100.00
61526;BME280;47394;41.366;-8.738;2022-09-20T06:42:04;76140.06;;;-144.74;100.00
61526;BME280;47394;41.366;-8.738;2022-09-20T06:44:05;76138.06;;;-144.74;100.00
61526;BME280;47394;41.366;-8.738;2022-09-20T06:46:06;76130.03;;;-144.74;100.00
61526;BME280;47394;41.366;-8.738;2022-09-20T06:48:07;76126.00;;;-144.74;100.00
61526;BME280;47394;41.366;-8.738;2022-09-20T06:50:16;76107.94;;;-144.74;100.00
61526;BME280;47394;41.366;-8.738;2022-09-20T06:52:18;76089.84;;;-144.74;100.00
61526;BME280;47394;41.366;-8.738;2022-09-20T06:54:20;76073.78;;;-144.74;100.00
61526;BME280;47394;41.366;-8.738;2022-09-20T06:56:24;76061.75;;;-144.74;100.00
61526;BME280;47394;41.366;-8.738;2022-09-20T06:58:26;76049.69;;;-144.74;100.00
61526;BME280;47394;41.366;-8.738;2022-09-20T07:00:27;76039.66;;;-144.74;100.00
61526;BME280;47394;41.366;-8.738;2022-09-20T07:02:28;76019.56;;;-144.74;100.00
61526;BME280;47394;41.366;-8.738;2022-09-20T07:04:29;76015.53;;;-144.74;100.00
61526;BME280;47394;41.366;-8.738;2022-09-20T07:06:31;75997.47;;;-144.74;100.00
61526;BME280;47394;41.366;-8.738;2022-09-20T07:08:31;75981.41;;;-144.74;100.00
61526;BME280;47394;41.366;-8.738;2022-09-20T07:10:32;75969.34;;;-144.74;100.00
61526;BME280;47394;41.366;-8.738;2022-09-20T07:12:33;75959.31;;;-144.74;100.00
61526;BME280;47394;41.366;-8.738;2022-09-20T07:14:34;75947.25;;;-144.74;100.00
61526;BME280;47394;41.366;-8.738;2022-09-20T07:16:35;75933.19;;;-144.74;99.24
61526;BME280;47394;41.366;-8.738;2022-09-20T07:18:36;75923.16;;;-144.74;98.30
61526;BME280;47394;41.366;-8.738;2022-09-20T07:20:37;75917.13;;;-144.74;97.19
61526;BME280;47394;41.366;-8.738;2022-09-20T07:22:38;75907.09;;;-144.74;96.42
61526;BME280;47394;41.366;-8.738;2022-09-20T07:24:38;75901.06;;;-144.74;95.26
61526;BME280;47394;41.366;-8.738;2022-09-20T07:26:53;75905.09;;;-144.74;93.70
61526;BME280;47394;41.366;-8.738;2022-09-20T07:28:56;75895.03;;;-144.74;92.84
61526;BME280;47394;41.366;-8.738;2022-09-20T07:30:57;75893.03;;;-144.74;92.25
61526;BME280;47394;41.366;-8.738;2022-09-20T07:32:57;75885.00;;;-144.74;91.63
61526;BME280;47394;41.366;-8.738;2022-09-20T07:34:59;75885.00;;;-144.74;90.62
61526;BME280;47394;41.366;-8.738;2022-09-20T07:37:01;75883.00;;;-144.74;89.98
61526;BME280;47394;41.366;-8.738;2022-09-20T07:39:02;75872.94;;;-144.74;89.59
61526;BME280;47394;41.366;-8.738;2022-09-20T07:41:03;75858.88;;;-144.74;89.34
61526;BME280;47394;41.366;-8.738;2022-09-20T07:43:04;75850.84;;;-144.74;89.02
61526;BME280;47394;41.366;-8.738;2022-09-20T07:45:05;75844.84;;;-144.74;88.48
61526;BME280;47394;41.366;-8.738;2022-09-20T07:47:07;75834.78;;;-144.74;88.24
61526;BME280;47394;41.366;-8.738;2022-09-20T07:49:09;75828.75;;;-144.74;87.78
61526;BME280;47394;41.366;-8.738;2022-09-20T07:51:11;75808.69;;;-144.74;87.47
61526;BME280;47394;41.366;-8.738;2022-09-20T07:53:12;75802.66;;;-144.74;87.19
61526;BME280;47394;41.366;-8.738;2022-09-20T07:55:13;75796.63;;;-144.74;86.58
61526;BME280;47394;41.366;-8.738;2022-09-20T07:57:15;75784.59;;;-144.74;86.19
61526;BME280;47394;41.366;-8.738;2022-09-20T07:59:16;75774.53;;;-144.74;85.92
61526;BME280;47394;41.366;-8.738;2022-09-20T08:01:16;75772.53;;;-144.74;84.86
61526;BME280;47394;41.366;-8.738;2022-09-20T08:03:19;75772.53;;;-144.74;84.21
61526;BME280;47394;41.366;-8.738;2022-09-20T08:05:19;75772.53;;;-144.74;84.19
61526;BME280;47394;41.366;-8.738;2022-09-20T08:07:20;75762.50;;;-144.74;83.85
61526;BME280;47394;41.366;-8.738;2022-09-20T08:09:21;75758.47;;;-144.74;83.41
61526;BME280;47394;41.366;-8.738;2022-09-20T08:11:23;75744.41;;;-144.74;83.33
61526;BME280;47394;41.366;-8.738;2022-09-20T08:13:24;75746.41;;;-144.74;82.75
61526;BME280;47394;41.366;-8.738;2022-09-20T08:15:25;75738.38;;;-144.74;82.87
61526;BME280;47394;41.366;-8.738;2022-09-20T08:17:25;75722.31;;;-144.74;82.46
61526;BME280;47394;41.366;-8.738;2022-09-20T08:19:26;75710.28;;;-144.74;82.09
61526;BME280;47394;41.366;-8.738;2022-09-20T08:21:31;75706.25;;;-144.74;82.22
61526;BME280;47394;41.366;-8.738;2022-09-20T08:23:36;75706.25;;;-144.74;81.83
61526;BME280;47394;41.366;-8.738;2022-09-20T08:25:38;75686.16;;;-144.74;81.89
61526;BME280;47394;41.366;-8.738;2022-09-20T08:27:38;75680.16;;;-144.74;81.86
61526;BME280;47394;41.366;-8.738;2022-09-20T08:29:39;75686.16;;;-144.74;80.22
61526;BME280;47394;41.366;-8.738;2022-09-20T08:31:40;75694.19;;;-144.74;80.77
61526;BME280;47394;41.366;-8.738;2022-09-20T08:33:41;75680.16;;;-144.74;80.94
61526;BME280;47394;41.366;-8.738;2022-09-20T08:35:42;75664.09;;;-144.74;80.73
61526;BME280;47394;41.366;-8.738;2022-09-20T08:37:43;75656.03;;;-144.74;80.41
61526;BME280;47394;41.366;-8.738;2022-09-20T08:39:44;75660.06;;;-144.74;79.85
61526;BME280;47394;41.366;-8.738;2022-09-20T08:41:49;75650.03;;;-144.74;80.09
61526;BME280;47394;41.366;-8.738;2022-09-20T08:43:56;75633.97;;;-144.74;80.16
61526;BME280;47394;41.366;-8.738;2022-09-20T08:45:58;75621.91;;;-144.74;79.69
61526;BME280;47394;41.366;-8.738;2022-09-20T08:48:03;75619.91;;;-144.74;79.22
61526;BME280;47394;41.366;-8.738;2022-09-20T08:50:06;75613.88;;;-144.74;78.93
61526;BME280;47394;41.366;-8.738;2022-09-20T08:52:17;75605.84;;;-144.74;78.69
61526;BME280;47394;41.366;-8.738;2022-09-20T08:54:19;75599.81;;;-144.74;78.72
61526;BME280;47394;41.366;-8.738;2022-09-20T08:56:26;75621.91;;;-144.74;76.76
61526;BME280;47394;41.366;-8.738;2022-09-20T08:58:28;75625.94;;;-144.74;77.31
61526;BME280;47394;41.366;-8.738;2022-09-20T09:00:33;75601.81;;;-144.74;77.31
61526;BME280;47394;41.366;-8.738;2022-09-20T09:02:35;75577.72;;;-144.74;76.82
61526;BME280;47394;41.366;-8.738;2022-09-20T09:04:37;75557.66;;;-144.74;76.47
61526;BME280;47394;41.366;-8.738;2022-09-20T09:06:38;75533.53;;;-144.74;75.51
61526;BME280;47394;41.366;-8.738;2022-09-20T09:08:39;75527.53;;;-144.74;74.62
61526;BME280;47394;41.366;-8.738;2022-09-20T09:10:46;75505.44;;;-144.74;74.07
61526;BME280;47394;41.366;-8.738;2022-09-20T09:12:47;75489.38;;;-144.74;73.73
61526;BME280;47394;41.366;-8.738;2022-09-20T09:14:50;75469.28;;;-144.74;73.30
61526;BME280;47394;41.366;-8.738;2022-09-20T09:16:54;75457.22;;;-144.74;72.59
61526;BME280;47394;41.366;-8.738;2022-09-20T09:18:55;75443.19;;;-144.74;71.75
61526;BME280;47394;41.366;-8.738;2022-09-20T09:20:57;75447.19;;;-144.74;70.10
61526;BME280;47394;41.366;-8.738;2022-09-20T09:22:59;75431.13;;;-144.74;70.30
61526;BME280;47394;41.366;-8.738;2022-09-20T09:25:27;75413.06;;;-144.74;69.93
61526;BME280;47394;41.366;-8.738;2022-09-20T09:27:33;75413.06;;;-144.74;69.36
61526;BME280;47394;41.366;-8.738;2022-09-20T09:29:34;75401.00;;;-144.74;69.27
61526;BME280;47394;41.366;-8.738;2022-09-20T09:31:35;75382.94;;;-144.74;68.81
61526;BME280;47394;41.366;-8.738;2022-09-20T09:33:42;75376.91;;;-144.74;67.92
61526;BME280;47394;41.366;-8.738;2022-09-20T09:35:55;75370.88;;;-144.74;67.74
61526;BME280;47394;41.366;-8.738;2022-09-20T09:37:58;75360.84;;;-144.74;67.64
61526;BME280;47394;41.366;-8.738;2022-09-20T09:40:17;75348.78;;;-144.74;67.15
61526;BME280;47394;41.366;-8.738;2022-09-20T09:42:20;75346.78;;;-144.74;66.29
61526;BME280;47394;41.366;-8.738;2022-09-20T09:44:25;75356.81;;;-144.74;65.53
61526;BME280;47394;41.366;-8.738;2022-09-20T09:46:32;75354.81;;;-144.74;65.71
61526;BME280;47394;41.366;-8.738;2022-09-20T09:48:33;75342.78;;;-144.74;65.96
61526;BME280;47394;41.366;-8.738;2022-09-20T09:50:34;75332.72;;;-144.74;66.25
61526;BME280;47394;41.366;-8.738;2022-09-20T09:52:34;75320.69;;;-144.74;65.75
61526;BME280;47394;41.366;-8.738;2022-09-20T09:54:42;75300.59;;;-144.74;65.33
61526;BME280;47394;41.366;-8.738;2022-09-20T09:57:44;75284.53;;;-144.74;64.30
61526;BME280;47394;41.366;-8.738;2022-09-20T09:59:31;75276.50;;;-144.74;63.58
61526;BME280;47394;41.366;-8.738;2022-09-20T10:06:26;75288.56;;;-144.74;62.24
61526;BME280;47394;41.366;-8.738;2022-09-20T10:08:45;75256.41;;;-144.74;62.24
61526;BME280;47394;41.366;-8.738;2022-09-20T10:13:25;75248.38;;;-144.74;60.66
61526;BME280;47394;41.366;-8.738;2022-09-20T10:20:22;75226.31;;;-144.74;61.06
61526;BME280;47394;41.366;-8.738;2022-09-20T10:35:38;75176.09;;;-144.74;60.69
61526;BME280;47394;41.366;-8.738;2022-09-20T10:39:39;75176.09;;;-144.74;60.57
61526;BME280;47394;41.366;-8.738;2022-09-20T10:44:32;75242.38;;;-144.74;61.32
61526;BME280;47394;41.366;-8.738;2022-09-20T10:46:47;75276.50;;;-144.74;62.22
61526;BME280;47394;41.366;-8.738;2022-09-20T10:49:00;75296.59;;;-144.74;62.70
61526;BME280;47394;41.366;-8.738;2022-09-20T10:51:14;75296.59;;;-144.74;62.89
61526;BME280;47394;41.366;-8.738;2022-09-20T10:53:57;75282.53;;;-144.74;63.45
61526;BME280;47394;41.366;-8.738;2022-09-20T10:56:26;75286.53;;;-144.74;63.46
61526;BME280;47394;41.366;-8.738;2022-09-20T11:06:00;75232.31;;;-144.74;64.27
61526;BME280;47394;41.366;-8.738;2022-09-20T11:08:12;75258.44;;;-144.74;62.85
61526;BME280;47394;41.366;-8.738;2022-09-20T11:10:21;75246.38;;;-144.74;62.30
61526;BME280;47394;41.366;-8.738;2022-09-20T11:12:48;75248.38;;;-144.74;60.99
61526;BME280;47394;41.366;-8.738;2022-09-20T11:17:11;75280.53;;;-144.74;60.56
61526;BME280;47394;41.366;-8.738;2022-09-20T11:24:39;75276.50;;;-144.74;60.63
61526;BME280;47394;41.366;-8.738;2022-09-20T11:26:49;75258.44;;;-144.74;60.44
61526;BME280;47394;41.366;-8.738;2022-09-20T11:28:56;75256.41;;;-144.74;60.36
61526;BME280;47394;41.366;-8.738;2022-09-20T11:31:06;75242.38;;;-144.74;58.95
61526;BME280;47394;41.366;-8.738;2022-09-20T11:33:18;75234.34;;;-144.74;57.80
61526;BME280;47394;41.366;-8.738;2022-09-20T11:37:42;75222.28;;;-144.74;56.76
61526;BME280;47394;41.366;-8.738;2022-09-20T11:39:55;75216.25;;;-144.74;56.08
61526;BME280;47394;41.366;-8.738;2022-09-20T11:42:00;75214.25;;;-144.74;55.61
61526;BME280;47394;41.366;-8.738;2022-09-20T11:44:10;75206.22;;;-144.74;55.46
61526;BME280;47394;41.366;-8.738;2022-09-20T11:46:26;75200.19;;;-144.74;55.41
61526;BME280;47394;41.366;-8.738;2022-09-20T11:48:33;75180.13;;;-144.74;56.02
61526;BME280;47394;41.366;-8.738;2022-09-20T11:55:34;75180.13;;;-144.74;54.91
61526;BME280;47394;41.366;-8.738;2022-09-20T11:57:38;75170.06;;;-144.74;55.79
61526;BME280;47394;41.366;-8.738;2022-09-20T11:59:40;75162.03;;;-144.74;55.71
61526;BME280;47394;41.366;-8.738;2022-09-20T12:01:42;75166.06;;;-144.74;57.10
61526;BME280;47394;41.366;-8.738;2022-09-20T12:03:44;75145.97;;;-144.74;55.92
61526;BME280;47394;41.366;-8.738;2022-09-20T12:06:01;75152.00;;;-144.74;56.34
61526;BME280;47394;41.366;-8.738;2022-09-20T12:08:06;75150.00;;;-144.74;55.41
61526;BME280;47394;41.366;-8.738;2022-09-20T12:12:35;75196.19;;;-144.74;58.29
61526;BME280;47394;41.366;-8.738;2022-09-20T12:14:36;75216.25;;;-144.74;57.98
61526;BME280;47394;41.366;-8.738;2022-09-20T12:16:42;75220.28;;;-144.74;58.35
61526;BME280;47394;41.366;-8.738;2022-09-20T12:25:38;75224.28;;;-144.74;56.83
61526;BME280;47394;41.366;-8.738;2022-09-20T12:31:49;75208.22;;;-144.74;55.86
61526;BME280;47394;41.366;-8.738;2022-09-20T12:34:01;75206.22;;;-144.74;56.06
61526;BME280;47394;41.366;-8.738;2022-09-20T12:36:14;75206.22;;;-144.74;56.90
61526;BME280;47394;41.366;-8.738;2022-09-20T12:38:28;75220.28;;;-144.74;56.09
61526;BME280;47394;41.366;-8.738;2022-09-20T12:40:30;75228.31;;;-144.74;56.66
61526;BME280;47394;41.366;-8.738;2022-09-20T12:42:32;75230.31;;;-144.74;56.99
61526;BME280;47394;41.366;-8.738;2022-09-20T12:51:36;75216.25;;;-144.74;56.99
61526;BME280;47394;41.366;-8.738;2022-09-20T12:54:07;75208.22;;;-144.74;55.76
61526;BME280;47394;41.366;-8.738;2022-09-20T12:56:22;75212.25;;;-144.74;55.79
61526;BME280;47394;41.366;-8.738;2022-09-20T12:58:36;75182.13;;;-144.74;55.49
61526;BME280;47394;41.366;-8.738;2022-09-20T13:00:42;75170.06;;;-144.74;55.09
61526;BME280;47394;41.366;-8.738;2022-09-20T13:04:53;75162.03;;;-144.74;55.31
61526;BME280;47394;41.366;-8.738;2022-09-20T13:09:33;75158.03;;;-144.74;54.72
61526;BME280;47394;41.366;-8.738;2022-09-20T13:11:55;75190.16;;;-144.74;54.45
61526;BME280;47394;41.366;-8.738;2022-09-20T13:16:05;75188.16;;;-144.74;55.43
61526;BME280;47394;41.366;-8.738;2022-09-20T13:18:06;75208.22;;;-144.74;56.04
61526;BME280;47394;41.366;-8.738;2022-09-20T13:20:25;75206.22;;;-144.74;56.35
61526;BME280;47394;41.366;-8.738;2022-09-20T13:22:28;75210.22;;;-144.74;56.72
61526;BME280;47394;41.366;-8.738;2022-09-20T13:24:37;75212.25;;;-144.74;55.68
61526;BME280;47394;41.366;-8.738;2022-09-20T13:26:40;75200.19;;;-144.74;56.09
61526;BME280;47394;41.366;-8.738;2022-09-20T13:28:50;75206.22;;;-144.74;56.52
61526;BME280;47394;41.366;-8.738;2022-09-20T13:31:19;75214.25;;;-144.74;57.72
61526;BME280;47394;41.366;-8.738;2022-09-20T13:33:23;75244.38;;;-144.74;58.56
61526;BME280;47394;41.366;-8.738;2022-09-20T13:35:27;75240.34;;;-144.74;58.44
61526;BME280;47394;41.366;-8.738;2022-09-20T13:37:32;75234.34;;;-144.74;58.84
61526;BME280;47394;41.366;-8.738;2022-09-20T13:39:34;75262.44;;;-144.74;58.68
61526;BME280;47394;41.366;-8.738;2022-09-20T13:41:36;75270.47;;;-144.74;59.12
61526;BME280;47394;41.366;-8.738;2022-09-20T13:43:42;75280.53;;;-144.74;59.45
61526;BME280;47394;41.366;-8.738;2022-09-20T13:45:45;75280.53;;;-144.74;60.19
61526;BME280;47394;41.366;-8.738;2022-09-20T13:47:49;75290.56;;;-144.74;60.68
61526;BME280;47394;41.366;-8.738;2022-09-20T13:49:50;75266.47;;;-144.74;61.19
61526;BME280;47394;41.366;-8.738;2022-09-20T13:51:51;75266.47;;;-144.74;60.75
61526;BME280;47394;41.366;-8.738;2022-09-20T13:53:52;75280.53;;;-144.74;61.58
61526;BME280;47394;41.366;-8.738;2022-09-20T13:55:54;75276.50;;;-144.74;62.02
61526;BME280;47394;41.366;-8.738;2022-09-20T13:57:58;75284.53;;;-144.74;62.76
61526;BME280;47394;41.366;-8.738;2022-09-20T13:59:59;75292.56;;;-144.74;63.67
61526;BME280;47394;41.366;-8.738;2022-09-20T14:02:01;75272.47;;;-144.74;64.29
61526;BME280;47394;41.366;-8.738;2022-09-20T14:04:06;75282.53;;;-144.74;64.75
61526;BME280;47394;41.366;-8.738;2022-09-20T14:06:11;75296.59;;;-144.74;66.15
61526;BME280;47394;41.366;-8.738;2022-09-20T14:08:23;75298.59;;;-144.74;66.76
61526;BME280;47394;41.366;-8.738;2022-09-20T14:10:34;75290.56;;;-144.74;66.68
61526;BME280;47394;41.366;-8.738;2022-09-20T14:12:36;75288.56;;;-144.74;66.36
61526;BME280;47394;41.366;-8.738;2022-09-20T14:14:38;75294.56;;;-144.74;65.12
61526;BME280;47394;41.366;-8.738;2022-09-20T14:16:41;75284.53;;;-144.74;63.36
61526;BME280;47394;41.366;-8.738;2022-09-20T14:18:47;75298.59;;;-144.74;62.98
61526;BME280;47394;41.366;-8.738;2022-09-20T14:20:48;75316.66;;;-144.74;63.45
61526;BME280;47394;41.366;-8.738;2022-09-20T14:22:49;75312.66;;;-144.74;63.85
61526;BME280;47394;41.366;-8.738;2022-09-20T14:25:02;75334.75;;;-144.74;62.98
61526;BME280;47394;41.366;-8.738;2022-09-20T14:31:34;75300.59;;;-144.74;62.53
61526;BME280;47394;41.366;-8.738;2022-09-20T14:33:43;75284.53;;;-144.74;62.47
61526;BME280;47394;41.366;-8.738;2022-09-20T14:35:47;75264.44;;;-144.74;62.54
61526;BME280;47394;41.366;-8.738;2022-09-20T14:37:51;75298.59;;;-144.74;62.29
61526;BME280;47394;41.366;-8.738;2022-09-20T14:39:58;75336.75;;;-144.74;64.09
61526;BME280;47394;41.366;-8.738;2022-09-20T14:42:00;75368.88;;;-144.74;64.70
61526;BME280;47394;41.366;-8.738;2022-09-20T14:44:01;75354.81;;;-144.74;67.12
61526;BME280;47394;41.366;-8.738;2022-09-20T14:46:15;75364.84;;;-144.74;67.79
61526;BME280;47394;41.366;-8.738;2022-09-20T14:54:29;75401.00;;;-144.74;67.54
61526;BME280;47394;41.366;-8.738;2022-09-20T14:56:34;75374.91;;;-144.74;67.80
61526;BME280;47394;41.366;-8.738;2022-09-20T15:01:24;75376.91;;;-144.74;68.03
61526;BME280;47394;41.366;-8.738;2022-09-20T15:03:28;75411.03;;;-144.74;67.95
61526;BME280;47394;41.366;-8.738;2022-09-20T15:05:30;75443.19;;;-144.74;68.71
61526;BME280;47394;41.366;-8.738;2022-09-20T15:07:31;75423.09;;;-144.74;68.79
61526;BME280;47394;41.366;-8.738;2022-09-20T15:09:32;75392.97;;;-144.74;68.34
61526;BME280;47394;41.366;-8.738;2022-09-20T15:11:34;75374.91;;;-144.74;67.19
61526;BME280;47394;41.366;-8.738;2022-09-20T15:13:35;75380.91;;;-144.74;65.59
61526;BME280;47394;41.366;-8.738;2022-09-20T15:15:36;75384.94;;;-144.74;65.01
61526;BME280;47394;41.366;-8.738;2022-09-20T15:17:37;75401.00;;;-144.74;66.69
61526;BME280;47394;41.366;-8.738;2022-09-20T15:19:37;75382.94;;;-144.74;66.17